Time;durP1;ratioP1;P1;durP2;ratioP2;P2;SDS_P1;SDS_P2;PMS_P1;PMS_P2;Temp;Humidity;BMP_temperature;BMP_pressure;BME280_temperature;BME280_humidity;BME280_pressure;Samples;Min_cycle;Max_cycle;Signal;HPM_P1;HPM_P2
2022/11/29 00:00:02;;;;;;;2.77;2.30;;;;;;;5.29;83.52;97278.75;5067184;28;20209;-83
2022/11/29 00:02:38;;;;;;;1.87;1.70;;;;;;;5.31;83.48;97277.84;5067672;28;20200;-81
2022/11/29 00:05:06;;;;;;;2.50;2.03;;;;;;;5.31;82.91;97266.72;5049212;28;20202;-82
2022/11/29 00:07:33;;;;;;;2.47;1.90;;;;;;;5.36;83.02;97286.28;5066934;28;20708;-82
2022/11/29 00:10:05;;;;;;;3.27;2.17;;;;;;;5.26;82.53;97276.22;5066984;28;20187;-83
2022/11/29 00:12:33;;;;;;;2.43;2.23;;;;;;;5.42;82.97;97280.19;5033034;28;20251;-83
2022/11/29 00:15:02;;;;;;;3.37;1.90;;;;;;;5.25;82.52;97254.88;5067108;28;20734;-82
2022/11/29 00:17:30;;;;;;;2.10;1.90;;;;;;;5.44;82.81;97281.81;5049355;28;20218;-82
2022/11/29 00:20:01;;;;;;;2.27;1.93;;;;;;;5.40;82.49;97281.94;5034024;28;20228;-81
2022/11/29 00:22:32;;;;;;;2.10;1.90;;;;;;;5.22;82.85;97259.22;5049252;28;20215;-81
2022/11/29 00:25:00;;;;;;;3.43;2.40;;;;;;;5.29;83.37;97278.75;5048900;28;20552;-81
2022/11/29 00:27:29;;;;;;;2.33;2.00;;;;;;;5.28;82.53;97274.47;5066288;28;20201;-81
2022/11/29 00:29:59;;;;;;;2.50;2.30;;;;;;;5.14;83.58;97254.25;5066371;28;20189;-81
2022/11/29 00:32:28;;;;;;;3.50;2.67;;;;;;;5.21;83.93;97260.09;5032255;28;20197;-81
2022/11/29 00:35:03;;;;;;;3.23;2.30;;;;;;;5.08;84.20;97250.97;5066503;28;20706;-81
2022/11/29 00:37:36;;;;;;;3.03;2.13;;;;;;;4.88;83.41;97212.91;5067130;28;20185;-81
2022/11/29 00:40:04;;;;;;;2.73;1.90;;;;;;;5.22;82.94;97264.34;5066167;28;20211;-81
2022/11/29 00:42:32;;;;;;;2.47;2.27;;;;;;;5.28;84.07;97269.34;5048691;28;20193;-81
2022/11/29 00:44:59;;;;;;;2.43;1.83;;;;;;;5.26;83.25;97258.25;5066998;28;20247;-81
2022/11/29 00:47:28;;;;;;;2.37;2.13;;;;;;;5.30;83.20;97265.88;5066377;28;20603;-82
2022/11/29 00:49:56;;;;;;;2.00;1.80;;;;;;;5.32;83.92;97260.69;5066556;28;20212;-82
2022/11/29 00:52:24;;;;;;;3.03;2.13;;;;;;;5.18;83.87;97255.00;5048273;28;20533;-81
2022/11/29 00:54:53;;;;;;;1.90;1.80;;;;;;;5.19;84.71;97254.16;5048748;28;20236;-82
2022/11/29 00:57:24;;;;;;;2.70;2.07;;;;;;;5.26;83.66;97250.56;5049258;28;20653;-81
2022/11/29 00:59:52;;;;;;;3.63;2.20;;;;;;;5.27;83.51;97252.25;5049171;28;20288;-82
2022/11/29 01:02:21;;;;;;;2.33;2.00;;;;;;;5.30;84.17;97257.31;5031694;28;20629;-82
2022/11/29 01:04:51;;;;;;;2.17;1.93;;;;;;;5.30;84.40;97240.19;5048617;28;20642;-82
2022/11/29 01:07:19;;;;;;;3.20;2.17;;;;;;;5.37;84.06;97246.91;5047723;28;20670;-82
2022/11/29 01:09:49;;;;;;;2.93;1.93;;;;;;;5.31;83.67;97251.31;5066577;28;20181;-82
2022/11/29 01:12:19;;;;;;;1.90;1.60;;;;;;;5.30;84.72;97241.91;5049078;28;20689;-81
2022/11/29 01:14:47;;;;;;;2.20;1.80;;;;;;;5.38;84.09;97237.47;5065985;28;20224;-81
2022/11/29 01:17:15;;;;;;;2.07;1.53;;;;;;;5.18;83.40;97213.94;5048330;28;20192;-81
2022/11/29 01:19:48;;;;;;;2.47;1.50;;;;;;;5.32;83.95;97237.59;5047978;28;20204;-81
2022/11/29 01:22:17;;;;;;;1.90;1.50;;;;;;;5.22;84.09;97241.22;5047823;28;20193;-82
2022/11/29 01:24:50;;;;;;;1.50;1.40;;;;;;;5.10;84.31;97213.28;5066173;28;20192;-82
2022/11/29 01:27:17;;;;;;;1.70;1.60;;;;;;;5.19;84.47;97207.94;5047930;28;20289;-81
2022/11/29 01:29:50;;;;;;;2.37;1.60;;;;;;;5.25;84.44;97234.34;5048227;28;20202;-80
2022/11/29 01:32:19;;;;;;;1.53;1.30;;;;;;;5.21;84.93;97227.59;5065916;28;20241;-80
2022/11/29 01:34:47;;;;;;;2.03;1.57;;;;;;;5.34;84.19;97243.53;5047794;28;20229;-81
2022/11/29 01:37:15;;;;;;;1.40;1.30;;;;;;;5.40;84.84;97240.84;5047865;28;20194;-80
2022/11/29 01:39:45;;;;;;;2.90;1.40;;;;;;;5.34;84.03;97238.41;5048018;28;20197;-80
2022/11/29 01:42:13;;;;;;;1.70;1.30;;;;;;;5.33;83.89;97223.88;5031420;28;20202;-81
2022/11/29 01:44:43;;;;;;;1.50;1.40;;;;;;;5.45;83.81;97246.72;5047687;28;20197;-81
2022/11/29 01:47:12;;;;;;;1.40;1.30;;;;;;;5.51;84.01;97246.56;5065933;28;20197;-81
2022/11/29 01:49:46;;;;;;;1.83;1.50;;;;;;;5.54;83.11;97247.34;5065741;28;20602;-80
2022/11/29 01:52:19;;;;;;;1.80;1.70;;;;;;;5.48;83.73;97242.34;5047417;28;20202;-80
2022/11/29 01:54:49;;;;;;;2.83;1.50;;;;;;;5.44;83.75;97245.03;5047216;28;20234;-79
2022/11/29 01:57:21;;;;;;;1.83;1.57;;;;;;;5.16;84.63;97218.28;5047642;28;20189;-80
2022/11/29 01:59:53;;;;;;;2.10;1.50;;;;;;;5.24;85.32;97236.91;5048394;28;20273;-80
2022/11/29 02:02:45;;;;;;;1.60;1.50;;;;;;;5.26;86.10;97232.59;5065530;28;20662;-80
2022/11/29 02:05:16;;;;;;;1.60;1.50;;;;;;;5.22;85.30;97215.56;5040587;28;20195;-81
2022/11/29 02:07:48;;;;;;;3.37;1.80;;;;;;;5.27;86.03;97232.56;5065621;28;20225;-81
2022/11/29 02:10:17;;;;;;;2.33;1.70;;;;;;;5.39;84.76;97227.16;5031018;28;20692;-82
2022/11/29 02:13:13;;;;;;;2.50;1.60;;;;;;;5.49;84.52;97240.63;5066048;28;20197;-82
2022/11/29 02:15:56;;;;;;;2.20;1.97;;;;;;;5.49;84.72;97236.34;5047369;28;20229;-81
2022/11/29 02:18:33;;;;;;;4.70;2.30;;;;;;;5.53;84.72;97232.81;5066071;28;20204;-81
2022/11/29 02:21:26;;;;;;;5.23;2.87;;;;;;;5.47;84.59;97229.56;5034764;28;20185;-80
2022/11/29 02:24:28;;;;;;;3.13;2.30;;;;;;;5.60;84.51;97233.53;5068866;28;20223;-80
2022/11/29 02:27:33;;;;;;;4.57;2.30;;;;;;;5.57;83.24;97228.47;4971093;28;20655;-80
2022/11/29 02:30:47;;;;;;;3.50;2.70;;;;;;;5.58;84.51;97227.59;5068956;28;20204;-81
2022/11/29 02:33:49;;;;;;;3.47;2.50;;;;;;;5.65;83.79;97223.97;5050611;28;20226;-81
2022/11/29 02:36:58;;;;;;;3.10;2.10;;;;;;;5.66;84.50;97220.53;5068556;28;20254;-81
2022/11/29 02:39:52;;;;;;;2.97;2.43;;;;;;;5.66;84.29;97218.84;5050985;28;20232;-80
2022/11/29 02:42:25;;;;;;;2.47;2.00;;;;;;;5.67;83.40;97228.22;5050220;28;20233;-81
2022/11/29 02:45:06;;;;;;;2.53;2.30;;;;;;;5.69;83.60;97223.88;5050356;28;20204;-81
2022/11/29 02:47:46;;;;;;;2.93;2.07;;;;;;;5.56;84.94;97222.47;5068764;28;20200;-81
2022/11/29 02:50:34;;;;;;;2.10;1.90;;;;;;;5.23;85.29;97218.13;5068196;28;20197;-81
2022/11/29 02:53:32;;;;;;;1.67;1.53;;;;;;;5.36;84.94;97213.53;5068325;28;20208;-81
2022/11/29 02:56:43;;;;;;;2.50;1.90;;;;;;;5.39;85.41;97208.34;5067069;28;20220;-81
2022/11/29 02:59:44;;;;;;;2.27;1.90;;;;;;;5.54;84.83;97220.84;4997132;28;20208;-81
2022/11/29 03:02:34;;;;;;;1.87;1.70;;;;;;;5.57;84.67;97231.88;5068390;28;20204;-80
2022/11/29 03:05:23;;;;;;;3.80;1.80;;;;;;;5.64;84.30;97227.44;5068900;28;20194;-81
2022/11/29 03:08:12;;;;;;;3.03;2.13;;;;;;;5.78;83.40;97222.81;5068294;28;20225;-80
2022/11/29 03:11:07;;;;;;;3.40;2.30;;;;;;;5.72;83.67;97223.81;5050458;28;20205;-80
2022/11/29 03:14:13;;;;;;;3.00;2.30;;;;;;;5.63;82.75;97224.03;5068692;28;20186;-80
2022/11/29 03:17:24;;;;;;;2.23;1.80;;;;;;;5.42;83.31;97190.31;5068598;28;20285;-80
2022/11/29 03:20:26;;;;;;;1.77;1.60;;;;;;;5.63;82.89;97221.47;5068084;28;20191;-80
2022/11/29 03:22:59;;;;;;;2.10;1.70;;;;;;;5.62;81.67;97221.50;5068350;28;20192;-81
2022/11/29 03:25:42;;;;;;;2.50;1.90;;;;;;;5.70;82.12;97225.59;5050054;28;20664;-79
2022/11/29 03:28:17;;;;;;;1.97;1.47;;;;;;;5.71;80.86;97209.28;5068272;28;20568;-81
2022/11/29 03:31:05;;;;;;;2.07;1.80;;;;;;;5.68;81.72;97221.34;5068594;28;20748;-81
2022/11/29 03:34:07;;;;;;;1.40;1.30;;;;;;;5.76;81.61;97225.44;5033969;28;20286;-81
2022/11/29 03:36:53;;;;;;;4.07;2.00;;;;;;;5.75;82.68;97230.59;5034408;28;20285;-81
2022/11/29 03:39:32;;;;;;;3.23;2.67;;;;;;;5.46;83.49;97215.84;5051521;28;20596;-81
2022/11/29 03:42:07;;;;;;;2.10;1.90;;;;;;;5.68;83.55;97229.91;5069625;28;20782;-80
2022/11/29 03:45:00;;;;;;;3.50;1.83;;;;;;;5.76;82.56;97229.72;5071511;28;20751;-81
2022/11/29 03:47:47;;;;;;;3.07;2.40;;;;;;;5.70;83.18;97228.16;5068558;28;20244;-81
2022/11/29 03:50:34;;;;;;;3.87;3.10;;;;;;;5.58;82.54;97232.72;5033853;28;20558;-81
2022/11/29 03:53:27;;;;;;;2.97;2.17;;;;;;;5.60;82.04;97233.53;5050345;28;20285;-81
2022/11/29 03:56:20;;;;;;;3.83;2.47;;;;;;;5.67;83.17;97250.47;5049798;28;20311;-81
2022/11/29 03:59:19;;;;;;;2.37;1.60;;;;;;;5.61;82.02;97242.91;5035720;28;20584;-83
2022/11/29 04:02:17;;;;;;;2.23;1.90;;;;;;;5.73;83.07;97251.19;5049656;28;20569;-81
2022/11/29 04:04:58;;;;;;;2.10;1.90;;;;;;;5.75;82.98;97253.72;5048993;28;20592;-82
2022/11/29 04:07:59;;;;;;;2.83;2.07;;;;;;;5.81;83.84;97245.88;5066950;28;20231;-81
2022/11/29 04:11:00;;;;;;;3.67;2.30;;;;;;;5.83;83.83;97244.13;5049357;28;20319;-83
2022/11/29 04:13:56;;;;;;;3.90;2.90;;;;;;;5.58;83.49;97253.28;5056835;28;20208;-80
2022/11/29 04:16:50;;;;;;;4.90;2.70;;;;;;;5.55;85.87;97256.75;5067118;28;20313;-81
2022/11/29 04:19:41;;;;;;;5.90;3.90;;;;;;;5.77;85.07;97263.09;5033399;28;20237;-82
2022/11/29 04:22:27;;;;;;;5.47;3.87;;;;;;;5.52;85.35;97259.38;5031956;28;20562;-84
2022/11/29 04:25:24;;;;;;;3.53;3.20;;;;;;;5.65;85.45;97257.38;5066483;28;20206;-83
2022/11/29 04:28:24;;;;;;;3.57;2.80;;;;;;;5.65;84.56;97259.94;5048934;28;20206;-82
2022/11/29 04:31:05;;;;;;;4.33;2.97;;;;;;;5.63;84.00;97257.41;5048812;28;20296;-81
2022/11/29 04:33:53;;;;;;;4.73;3.27;;;;;;;5.71;84.22;97258.09;5048784;28;20201;-82
2022/11/29 04:36:30;;;;;;;4.33;3.43;;;;;;;5.82;84.25;97254.41;5049504;28;20248;-82
2022/11/29 04:39:03;;;;;;;3.83;3.00;;;;;;;5.86;83.85;97267.19;5040490;28;20300;-81
2022/11/29 04:41:36;;;;;;;4.37;3.33;;;;;;;5.85;83.23;97259.53;5080543;28;20205;-81
2022/11/29 04:44:25;;;;;;;6.07;4.53;;;;;;;5.86;82.64;97251.78;5072405;28;20284;-80
2022/11/29 04:47:23;;;;;;;8.27;5.00;;;;;;;5.86;84.05;97250.94;5067265;28;20212;-83
2022/11/29 04:50:29;;;;;;;5.93;4.63;;;;;;;5.85;83.65;97252.69;5053724;28;20240;-81
2022/11/29 04:53:24;;;;;;;9.53;6.30;;;;;;;5.63;86.00;97256.56;5029239;28;20198;-81
2022/11/29 04:56:07;;;;;;;6.60;4.67;;;;;;;5.63;84.62;97251.44;5076101;28;20229;-82
2022/11/29 04:58:47;;;;;;;7.10;4.53;;;;;;;5.69;84.90;97253.84;5057753;28;20248;-81
2022/11/29 05:01:54;;;;;;;6.80;5.07;;;;;;;5.82;84.34;97260.41;5069196;28;20205;-82
2022/11/29 05:04:53;;;;;;;7.43;4.90;;;;;;;5.72;84.76;97262.34;5081631;28;20208;-85
2022/11/29 05:07:55;;;;;;;10.67;5.20;;;;;;;5.69;83.82;97247.00;5086522;28;20647;-83
2022/11/29 05:10:59;;;;;;;6.50;4.50;;;;;;;5.90;82.48;97248.25;5051634;28;20688;-83
2022/11/29 05:13:35;;;;;;;11.33;6.00;;;;;;;5.67;83.44;97259.03;5057288;28;20214;-81
2022/11/29 05:16:22;;;;;;;13.40;5.40;;;;;;;5.70;82.87;97260.69;5066339;28;20244;-83
2022/11/29 05:19:21;;;;;;;4.73;3.70;;;;;;;5.59;84.37;97258.38;5049345;28;20554;-83
2022/11/29 05:22:30;;;;;;;7.00;4.00;;;;;;;5.68;82.97;97273.59;5067946;28;20260;-84
2022/11/29 05:25:33;;;;;;;6.20;3.57;;;;;;;5.69;82.38;97266.69;5066616;28;20193;-84
2022/11/29 05:28:09;;;;;;;8.57;3.30;;;;;;;5.70;83.50;97255.56;5036272;28;20210;-84
2022/11/29 05:31:01;;;;;;;8.17;4.00;;;;;;;5.70;82.79;97270.97;5082497;28;20296;-82
2022/11/29 05:33:55;;;;;;;6.60;4.20;;;;;;;5.82;82.21;97280.13;5071978;28;20205;-83
2022/11/29 05:36:41;;;;;;;8.87;5.07;;;;;;;5.85;82.02;97286.09;5086086;28;20791;-83
2022/11/29 05:39:29;;;;;;;10.90;4.50;;;;;;;5.74;82.62;97288.00;5051316;28;20209;-85
2022/11/29 05:42:01;;;;;;;15.50;6.83;;;;;;;5.76;82.68;97293.97;5052146;28;20249;-83
2022/11/29 05:44:42;;;;;;;10.63;5.40;;;;;;;5.75;83.75;97275.13;5051563;28;20229;-81
2022/11/29 05:47:20;;;;;;;12.63;7.20;;;;;;;5.50;84.25;97266.28;5035003;28;20202;-82
2022/11/29 05:50:17;;;;;;;7.97;4.77;;;;;;;5.57;84.30;97284.97;5069792;28;20181;-83
2022/11/29 05:53:15;;;;;;;8.70;4.27;;;;;;;5.56;84.41;97291.00;5052099;28;20192;-82
2022/11/29 05:56:01;;;;;;;8.47;5.40;;;;;;;5.47;84.39;97292.03;5054892;28;20225;-83
2022/11/29 05:59:01;;;;;;;6.50;4.10;;;;;;;5.55;84.80;97286.72;5072078;28;20193;-82
2022/11/29 06:01:36;;;;;;;11.03;5.53;;;;;;;5.60;84.34;97290.91;5071932;28;20201;-83
2022/11/29 06:04:27;;;;;;;7.80;5.93;;;;;;;5.60;84.62;97290.06;5071904;28;20188;-83
2022/11/29 06:07:20;;;;;;;6.23;4.50;;;;;;;5.51;84.74;97292.81;5070454;28;20329;-84
2022/11/29 06:10:01;;;;;;;9.87;5.77;;;;;;;5.56;85.59;97291.00;5074419;28;20200;-82
2022/11/29 06:12:42;;;;;;;10.90;5.30;;;;;;;5.52;85.98;97279.09;5041708;28;20196;-83
2022/11/29 06:15:23;;;;;;;9.70;4.80;;;;;;;5.60;85.46;97296.03;5071926;28;20556;-83
2022/11/29 06:18:37;;;;;;;12.63;6.20;;;;;;;5.62;85.38;97301.13;5090079;28;20202;-83
2022/11/29 06:21:33;;;;;;;12.40;5.87;;;;;;;5.65;85.17;97295.91;4971750;28;20200;-84
2022/11/29 06:24:24;;;;;;;6.03;4.27;;;;;;;5.59;85.76;97293.47;5089681;28;20285;-83
2022/11/29 06:27:17;;;;;;;8.70;5.10;;;;;;;5.62;85.04;97278.00;5046094;28;20691;-84
2022/11/29 06:30:06;;;;;;;7.73;4.97;;;;;;;5.41;85.63;97278.47;5089797;28;20228;-83
2022/11/29 06:32:55;;;;;;;11.07;5.93;;;;;;;5.52;86.00;97281.66;5071255;28;20219;-82
2022/11/29 06:35:47;;;;;;;8.27;4.70;;;;;;;5.42;84.91;97264.78;5071111;28;20229;-82
2022/11/29 06:38:26;;;;;;;5.80;4.03;;;;;;;5.55;85.83;97282.44;5071357;28;20288;-84
2022/11/29 06:40:58;;;;;;;7.03;3.97;;;;;;;5.40;85.59;97243.44;5038183;28;20197;-84
2022/11/29 06:43:30;;;;;;;7.10;4.30;;;;;;;5.70;84.83;97284.69;5055193;28;20208;-84
2022/11/29 06:46:26;;;;;;;7.17;4.93;;;;;;;5.74;85.83;97283.72;5038445;28;20228;-84
2022/11/29 06:49:08;;;;;;;7.03;4.27;;;;;;;5.68;86.19;97276.16;5071296;28;20195;-83
2022/11/29 06:51:58;;;;;;;11.30;6.30;;;;;;;5.81;86.23;97271.59;5070633;28;20206;-83
2022/11/29 06:54:49;;;;;;;6.93;4.63;;;;;;;5.75;86.34;97264.00;5070244;28;20295;-82
2022/11/29 06:57:44;;;;;;;10.57;5.30;;;;;;;5.94;86.18;97265.28;5071170;28;20303;-83
2022/11/29 07:00:25;;;;;;;18.43;9.87;;;;;;;6.01;85.42;97266.84;5037593;28;20223;-82
2022/11/29 07:03:23;;;;;;;13.70;8.50;;;;;;;5.91;84.96;97270.50;5088787;28;20197;-83
2022/11/29 07:05:59;;;;;;;10.77;6.43;;;;;;;5.88;84.71;97262.88;5069665;28;20721;-83
2022/11/29 07:08:53;;;;;;;6.73;5.27;;;;;;;5.97;85.68;97265.22;5089608;28;20623;-83
2022/11/29 07:11:26;;;;;;;13.03;7.57;;;;;;;5.82;86.09;97262.13;5071993;28;20194;-83
2022/11/29 07:13:54;;;;;;;7.70;5.77;;;;;;;5.80;85.62;97285.28;5069543;28;20212;-83
2022/11/29 07:16:56;;;;;;;12.00;7.07;;;;;;;5.85;85.41;97274.94;5071247;28;20236;-82
2022/11/29 07:20:01;;;;;;;11.10;6.00;;;;;;;5.87;84.91;97283.47;5052779;28;20267;-83
2022/11/29 07:23:00;;;;;;;9.27;6.70;;;;;;;5.92;84.88;97282.47;5088239;28;20180;-83
2022/11/29 07:25:35;;;;;;;12.97;8.20;;;;;;;5.98;85.76;97286.59;5069954;28;20200;-82
2022/11/29 07:28:30;;;;;;;14.57;8.77;;;;;;;5.98;84.17;97286.59;5069871;28;20723;-82
2022/11/29 07:31:28;;;;;;;8.13;6.23;;;;;;;5.80;84.89;97269.88;5055329;28;20205;-81
2022/11/29 07:34:33;;;;;;;8.30;4.20;;;;;;;5.90;84.29;97281.66;5069571;28;20203;-82
2022/11/29 07:37:53;;;;;;;6.00;4.30;;;;;;;5.99;84.73;97280.59;5072717;28;20263;-84
2022/11/29 07:40:37;;;;;;;7.60;4.97;;;;;;;5.83;84.99;97267.25;5069970;28;20540;-82
2022/11/29 07:43:22;;;;;;;6.57;5.03;;;;;;;5.65;84.69;97231.69;5070355;28;20214;-81
2022/11/29 07:46:00;;;;;;;10.13;5.47;;;;;;;5.69;85.25;97262.41;5070123;28;20190;-82
2022/11/29 07:48:38;;;;;;;7.03;4.90;;;;;;;5.87;85.29;97289.47;5070052;28;20204;-82
2022/11/29 07:51:06;;;;;;;8.27;4.30;;;;;;;5.70;84.98;97258.13;5053186;28;20189;-84
2022/11/29 07:53:43;;;;;;;9.37;6.57;;;;;;;6.00;84.61;97293.41;5071999;28;20198;-83
2022/11/29 07:56:20;;;;;;;14.13;8.73;;;;;;;6.09;84.65;97285.50;5089254;28;20236;-84
2022/11/29 07:59:13;;;;;;;11.73;7.47;;;;;;;6.17;84.57;97291.28;5070375;28;20205;-86
2022/11/29 08:01:45;;;;;;;10.57;6.73;;;;;;;6.24;84.56;97284.28;5067556;28;20225;-83
2022/11/29 08:04:16;;;;;;;7.47;5.33;;;;;;;6.18;84.61;97284.44;5087598;28;20186;-82
2022/11/29 08:07:17;;;;;;;6.47;5.33;;;;;;;5.55;87.14;97245.63;5069702;28;20222;-84
2022/11/29 08:10:38;;;;;;;8.93;4.83;;;;;;;6.06;86.73;97298.41;5071211;28;20252;-82
2022/11/29 08:13:07;;;;;;;6.37;4.67;;;;;;;6.13;86.38;97291.38;5087351;28;20207;-83
2022/11/29 08:15:44;;;;;;;5.67;4.07;;;;;;;6.12;85.88;97285.41;5069326;28;20217;-83
2022/11/29 08:18:43;;;;;;;6.23;3.83;;;;;;;6.01;86.61;97307.97;5065136;28;20296;-83
2022/11/29 08:21:16;;;;;;;5.13;3.90;;;;;;;5.76;86.53;97283.69;5068891;28;20205;-84
2022/11/29 08:23:48;;;;;;;6.20;3.80;;;;;;;5.82;86.96;97314.38;5088428;28;20196;-83
2022/11/29 08:26:29;;;;;;;5.40;3.30;;;;;;;5.88;86.84;97310.84;5068935;28;20626;-83
2022/11/29 08:29:02;;;;;;;7.53;3.60;;;;;;;5.59;87.37;97272.94;5070149;28;20182;-82
2022/11/29 08:31:33;;;;;;;7.77;5.70;;;;;;;6.08;86.86;97306.91;5069499;28;20665;-83
2022/11/29 08:34:09;;;;;;;5.53;4.10;;;;;;;6.20;86.90;97309.19;5052565;28;20563;-85
2022/11/29 08:36:48;;;;;;;6.67;3.93;;;;;;;6.25;86.78;97307.38;5068296;28;20225;-85
2022/11/29 08:39:29;;;;;;;5.07;3.73;;;;;;;6.23;85.71;97308.28;5086458;28;20208;-84
2022/11/29 08:42:00;;;;;;;4.30;3.77;;;;;;;5.94;86.01;97280.72;5067836;28;20194;-83
2022/11/29 08:44:30;;;;;;;9.33;4.67;;;;;;;6.21;86.73;97295.47;5067503;28;20274;-83
2022/11/29 08:50:00;;;;;;;5.10;4.50;;;;;;;6.41;86.74;97294.97;5068579;28;20620;-81
2022/11/29 08:55:59;;;;;;;4.53;4.10;;;;;;;6.53;86.15;97287.78;5068220;28;20204;-83
2022/11/29 08:58:59;;;;;;;5.97;4.40;;;;;;;6.56;85.81;97279.13;5086935;28;20697;-84
2022/11/29 09:01:29;;;;;;;9.80;6.27;;;;;;;6.66;85.09;97300.34;5086842;28;20741;-84
2022/11/29 09:04:12;;;;;;;5.43;3.90;;;;;;;6.57;85.72;97276.53;5068183;28;20297;-84
2022/11/29 09:07:08;;;;;;;4.30;3.53;;;;;;;6.67;85.53;97291.72;5088746;28;20249;-83
2022/11/29 09:09:48;;;;;;;6.57;4.40;;;;;;;6.72;85.71;97282.16;5086932;28;20885;-85
2022/11/29 09:12:26;;;;;;;5.67;4.60;;;;;;;6.66;85.57;97257.44;5086721;28;20285;-84
2022/11/29 09:14:58;;;;;;;4.43;3.47;;;;;;;6.82;86.88;97281.03;5052096;28;20581;-82
2022/11/29 09:17:27;;;;;;;5.23;3.73;;;;;;;6.82;84.96;97247.56;5086376;28;20224;-83
2022/11/29 09:19:56;;;;;;;7.33;4.10;;;;;;;6.92;85.20;97262.72;5068176;28;20200;-82
2022/11/29 09:22:26;;;;;;;5.37;4.03;;;;;;;6.92;86.07;97249.00;5068435;28;20562;-83
2022/11/29 09:24:59;;;;;;;9.50;5.33;;;;;;;6.92;86.47;97269.59;5068096;28;20194;-83
2022/11/29 09:27:28;;;;;;;6.90;5.10;;;;;;;6.86;85.48;97244.84;5082641;28;20198;-83
2022/11/29 09:30:07;;;;;;;7.70;4.80;;;;;;;7.03;86.23;97265.81;5090227;28;20580;-83
2022/11/29 09:32:37;;;;;;;6.03;4.20;;;;;;;6.90;87.29;97238.75;5087235;28;20697;-83
2022/11/29 09:35:16;;;;;;;4.97;3.30;;;;;;;6.99;87.52;97235.91;5055872;28;20955;-83
2022/11/29 09:37:47;;;;;;;5.43;3.80;;;;;;;6.99;86.98;97245.34;5056276;28;20226;-83
2022/11/29 09:40:20;;;;;;;5.10;3.57;;;;;;;7.05;86.63;97242.59;5056270;28;20202;-83
2022/11/29 09:43:19;;;;;;;8.60;4.60;;;;;;;7.12;86.96;97242.41;5091938;28;20290;-83
2022/11/29 09:45:56;;;;;;;9.60;6.00;;;;;;;6.95;87.41;97225.72;5095684;28;20198;-83
2022/11/29 09:48:27;;;;;;;6.83;5.30;;;;;;;6.84;88.27;97244.03;5080770;28;20281;-84
2022/11/29 09:51:37;;;;;;;5.03;3.97;;;;;;;7.12;87.97;97234.66;5084085;28;20182;-81
2022/11/29 09:54:26;;;;;;;12.83;6.67;;;;;;;7.19;88.12;97225.88;5063964;28;20206;-82
2022/11/29 09:56:56;;;;;;;9.43;6.53;;;;;;;7.17;88.89;97230.22;5074132;28;20301;-82
2022/11/29 09:59:46;;;;;;;10.50;6.73;;;;;;;7.24;88.30;97220.56;5090651;28;20210;-83
2022/11/29 10:02:35;;;;;;;9.43;5.13;;;;;;;7.40;87.77;97212.34;5072604;28;20194;-81
2022/11/29 10:05:19;;;;;;;5.90;4.20;;;;;;;7.47;88.38;97223.31;5038645;28;20294;-84
2022/11/29 10:08:14;;;;;;;7.37;5.03;;;;;;;7.41;88.46;97231.22;5042835;28;20630;-84
2022/11/29 10:11:19;;;;;;;9.07;5.30;;;;;;;7.16;88.07;97225.13;5080523;28;20627;-82
2022/11/29 10:14:16;;;;;;;7.97;5.63;;;;;;;7.29;89.79;97214.38;5071583;28;20209;-81
2022/11/29 10:17:20;;;;;;;8.43;5.63;;;;;;;7.06;90.14;97226.28;5089639;28;20232;-83
2022/11/29 10:19:54;;;;;;;7.87;5.37;;;;;;;7.20;89.72;97224.13;5071578;28;20658;-83
2022/11/29 10:22:52;;;;;;;8.87;6.00;;;;;;;7.08;89.05;97216.78;5089107;28;20210;-82
2022/11/29 10:25:43;;;;;;;6.40;5.13;;;;;;;7.19;89.31;97207.00;5054488;28;20226;-83
2022/11/29 10:28:22;;;;;;;7.10;4.47;;;;;;;6.99;89.11;97170.69;5072432;28;20305;-83
2022/11/29 10:31:17;;;;;;;5.30;4.33;;;;;;;7.07;88.87;97212.50;5071320;28;20729;-85
2022/11/29 10:33:49;;;;;;;5.67;4.37;;;;;;;6.94;90.05;97211.19;5066247;28;20260;-83
2022/11/29 10:36:28;;;;;;;7.40;5.93;;;;;;;7.25;89.84;97207.66;5054204;28;20594;-84
2022/11/29 10:39:19;;;;;;;9.60;5.93;;;;;;;7.14;89.65;97209.72;5070832;28;20329;-82
2022/11/29 10:41:55;;;;;;;9.53;6.73;;;;;;;7.04;89.69;97198.00;5071109;28;20198;-83
2022/11/29 10:44:33;;;;;;;7.77;6.07;;;;;;;7.25;89.61;97206.81;5054783;28;20201;-82
2022/11/29 10:47:11;;;;;;;4.80;3.77;;;;;;;7.20;88.68;97195.81;5058092;28;20199;-84
2022/11/29 10:49:56;;;;;;;4.23;3.83;;;;;;;7.16;87.62;97192.50;5067086;28;20277;-83
2022/11/29 10:52:31;;;;;;;4.37;3.70;;;;;;;7.33;87.88;97194.56;5089471;28;20192;-83
2022/11/29 10:55:01;;;;;;;5.47;3.30;;;;;;;7.19;87.74;97207.00;5071109;28;20214;-83
2022/11/29 10:57:33;;;;;;;3.83;3.53;;;;;;;7.33;86.88;97192.84;5055399;28;20223;-82
2022/11/29 11:00:14;;;;;;;3.63;3.23;;;;;;;7.33;87.34;97199.72;5071424;28;20299;-82
2022/11/29 11:07:34;;;;;;;13.30;5.23;;;;;;;7.34;87.49;97191.06;4980864;28;20765;-82
2022/11/29 11:10:27;;;;;;;6.67;4.67;;;;;;;7.49;86.90;97185.47;4953048;28;20263;-83
2022/11/29 11:13:19;;;;;;;7.73;5.37;;;;;;;7.52;87.32;97193.09;4968343;28;20203;-85
2022/11/29 11:16:25;;;;;;;7.67;5.10;;;;;;;7.70;87.46;97189.94;5050448;28;20185;-83
2022/11/29 11:19:37;;;;;;;7.53;5.10;;;;;;;7.53;87.74;97181.91;5052403;28;20191;-87
2022/11/29 11:23:21;;;;;;;5.30;4.50;;;;;;;7.69;86.78;97183.09;5059666;28;20281;-83
2022/11/29 11:26:06;;;;;;;7.30;4.67;;;;;;;7.58;86.76;97162.00;5034422;28;20850;-82
2022/11/29 11:28:58;;;;;;;6.00;4.43;;;;;;;7.78;86.47;97187.09;5035702;28;20642;-83
2022/11/29 11:32:19;;;;;;;9.33;5.30;;;;;;;7.72;87.66;97187.31;5037676;28;20697;-85
2022/11/29 11:35:01;;;;;;;9.03;5.73;;;;;;;7.58;87.54;97181.75;5052028;28;20596;-82
2022/11/29 11:37:35;;;;;;;7.10;5.37;;;;;;;7.34;88.55;97173.03;5065515;28;20905;-83
2022/11/29 11:40:27;;;;;;;6.40;4.43;;;;;;;7.47;87.80;97181.25;5050400;28;20206;-84
2022/11/29 11:43:02;;;;;;;10.50;6.97;;;;;;;7.61;87.63;97182.50;5048358;28;20214;-82
2022/11/29 11:45:37;;;;;;;7.97;5.60;;;;;;;7.55;87.06;97180.09;5049406;28;20289;-82
2022/11/29 11:49:19;;;;;;;8.47;5.93;;;;;;;7.55;87.96;97179.25;5037266;28;20192;-82
2022/11/29 11:52:43;;;;;;;9.63;5.50;;;;;;;7.48;88.75;97178.59;5024609;28;20287;-84
2022/11/29 11:55:54;;;;;;;4.57;4.10;;;;;;;7.49;89.16;97149.38;5067282;28;20721;-84
2022/11/29 11:58:30;;;;;;;6.53;5.70;;;;;;;7.62;88.66;97166.16;5033539;28;20318;-84
2022/11/29 12:01:29;;;;;;;8.07;4.70;;;;;;;7.47;87.61;97129.72;5050574;28;20257;-83
2022/11/29 12:04:34;;;;;;;6.13;5.37;;;;;;;7.70;88.10;97169.31;5064706;28;20255;-83
2022/11/29 12:07:21;;;;;;;11.97;10.73;;;;;;;7.72;88.81;97172.69;5055292;28;20230;-82
2022/11/29 12:10:46;;;;;;;9.67;6.57;;;;;;;7.78;88.13;97171.63;5075276;28;20217;-85
2022/11/29 12:14:03;;;;;;;7.23;5.27;;;;;;;7.85;87.96;97157.66;5069484;28;20287;-82
2022/11/29 12:17:37;;;;;;;7.47;5.67;;;;;;;7.91;87.48;97160.03;5082933;28;20331;-83
2022/11/29 12:21:20;;;;;;;10.67;7.00;;;;;;;7.72;88.87;97171.84;5051887;28;20200;-83
2022/11/29 12:24:21;;;;;;;11.00;6.20;;;;;;;7.72;88.46;97157.22;4986503;28;20202;-83
2022/11/29 12:27:05;;;;;;;7.40;5.07;;;;;;;7.76;88.81;97171.69;5041740;28;20259;-82
2022/11/29 12:29:58;;;;;;;6.97;4.70;;;;;;;7.82;88.84;97162.91;5088001;28;20203;-82
2022/11/29 12:33:30;;;;;;;4.60;4.00;;;;;;;7.83;88.67;97162.03;5085896;28;20226;-82
2022/11/29 12:36:03;;;;;;;7.37;3.80;;;;;;;7.84;88.81;97169.72;5053629;28;20249;-81
2022/11/29 12:39:10;;;;;;;13.27;7.63;;;;;;;7.93;88.79;97159.06;5089338;28;20265;-84
2022/11/29 12:42:08;;;;;;;6.13;4.23;;;;;;;7.87;88.54;97155.88;5087810;28;20260;-82
2022/11/29 12:45:31;;;;;;;7.70;5.90;;;;;;;7.47;88.62;97109.09;5076605;28;20252;-82
2022/11/29 12:48:22;;;;;;;9.73;5.30;;;;;;;7.63;88.89;97167.81;5071111;28;20190;-82
2022/11/29 12:51:26;;;;;;;6.57;4.77;;;;;;;7.60;89.00;97137.00;5040477;28;20696;-84
2022/11/29 12:54:01;;;;;;;5.77;4.17;;;;;;;7.72;88.71;97162.38;5087251;28;20184;-82
2022/11/29 12:57:01;;;;;;;5.93;4.57;;;;;;;7.72;88.79;97170.13;5069164;28;20266;-81
2022/11/29 12:59:59;;;;;;;6.20;4.70;;;;;;;7.63;89.85;97162.66;5041785;28;20663;-82
2022/11/29 13:02:50;;;;;;;3.60;2.87;;;;;;;7.56;89.54;97165.50;5052701;28;20208;-83
2022/11/29 13:06:07;;;;;;;4.03;3.33;;;;;;;7.45;89.23;97172.72;5051789;28;20289;-88
2022/11/29 13:09:12;;;;;;;5.83;3.80;;;;;;;7.60;89.37;97161.94;5086453;28;20214;-83
2022/11/29 13:12:12;;;;;;;6.37;4.67;;;;;;;7.68;90.66;97160.78;5070836;28;20640;-81
2022/11/29 13:14:58;;;;;;;7.60;5.23;;;;;;;7.59;89.72;97167.97;5052412;28;20802;-84
2022/11/29 13:17:49;;;;;;;6.97;4.03;;;;;;;7.68;89.30;97165.09;5069232;28;20668;-82
2022/11/29 13:20:59;;;;;;;5.17;3.77;;;;;;;7.74;89.53;97168.31;5086546;28;20193;-82